Terminal Aerodrome Forecast
Issued by NWS

Home | Current Version | Previous Version | Text Only | Print | Product List | Glossary On
Versions: 1 2 3 4 5 6 7 8 9 10 11 12 13 14 15 16
000
FTAK31 PAJN 201100
TAFAPG
TAF
PAPG 201122Z 2012/2112 07007KT 5SM RA BR SCT007 BKN040 OVC050
      TEMPO 2012/2016 12010G15KT
     FM201600 14010KT 5SM -RA BR SCT007 OVC025
     FM202000 14010G20KT 6SM -RA BR SCT015 OVC020
     FM210000 VRB05KT P6SM -RA SCT015 OVC035
     FM210400 VRB03KT 4SM RA BR SCT007 OVC020
     FM211100 03005KT 3SM -RA BR BKN007 OVC020
      AMD LTD TO CLD VIS AND WIND 2012/2015=

USA.gov is the U.S. government's official web portal to all federal, state and local government web resources and services.